sensor_id;sensor_type;location;lat;lon;timestamp;pressure;altitude;pressure_sealevel;temperature;humidity
53960;BME280;39866;48.638;-2.020;2022-09-20T00:00:42;102295.84;;;20.96;47.91
53960;BME280;39866;48.638;-2.020;2022-09-20T00:03:10;102295.75;;;20.98;47.79
53960;BME280;39866;48.638;-2.020;2022-09-20T00:05:36;102286.97;;;20.93;47.81
53960;BME280;39866;48.638;-2.020;2022-09-20T00:08:04;102292.47;;;20.91;47.47
53960;BME280;39866;48.638;-2.020;2022-09-20T00:10:32;102286.91;;;20.94;47.81
53960;BME280;39866;48.638;-2.020;2022-09-20T00:13:00;102285.44;;;20.87;47.80
53960;BME280;39866;48.638;-2.020;2022-09-20T00:15:25;102289.16;;;20.85;47.30
53960;BME280;39866;48.638;-2.020;2022-09-20T00:17:51;102290.03;;;20.85;47.63
53960;BME280;39866;48.638;-2.020;2022-09-20T00:20:16;102290.91;;;20.86;47.73
53960;BME280;39866;48.638;-2.020;2022-09-20T00:22:42;102287.56;;;20.81;47.71
53960;BME280;39866;48.638;-2.020;2022-09-20T00:25:07;102277.03;;;20.74;47.62
53960;BME280;39866;48.638;-2.020;2022-09-20T00:27:33;102285.06;;;20.76;47.42
53960;BME280;39866;48.638;-2.020;2022-09-20T00:29:58;102287.91;;;20.73;47.59
53960;BME280;39866;48.638;-2.020;2022-09-20T00:32:24;102288.88;;;20.72;47.70
53960;BME280;39866;48.638;-2.020;2022-09-20T00:34:49;102290.56;;;20.74;47.53
53960;BME280;39866;48.638;-2.020;2022-09-20T00:37:34;102289.16;;;20.66;47.34
53960;BME280;39866;48.638;-2.020;2022-09-20T00:40:01;102293.84;;;20.62;47.80
53960;BME280;39866;48.638;-2.020;2022-09-20T00:42:28;102295.47;;;20.66;47.93
53960;BME280;39866;48.638;-2.020;2022-09-20T00:45:21;102294.50;;;20.67;47.67
53960;BME280;39866;48.638;-2.020;2022-09-20T00:50:30;102303.78;;;20.62;47.93
53960;BME280;39866;48.638;-2.020;2022-09-20T00:55:37;102296.69;;;20.59;48.03
53960;BME280;39866;48.638;-2.020;2022-09-20T00:58:05;102293.91;;;20.61;47.95
53960;BME280;39866;48.638;-2.020;2022-09-20T01:00:30;102297.66;;;20.58;48.11
53960;BME280;39866;48.638;-2.020;2022-09-20T01:03:00;102290.44;;;20.57;48.35
53960;BME280;39866;48.638;-2.020;2022-09-20T01:05:27;102299.53;;;20.56;48.17
53960;BME280;39866;48.638;-2.020;2022-09-20T01:07:53;102297.13;;;20.50;48.14
53960;BME280;39866;48.638;-2.020;2022-09-20T01:10:20;102293.69;;;20.45;47.99
53960;BME280;39866;48.638;-2.020;2022-09-20T01:12:47;102302.53;;;20.50;47.94
53960;BME280;39866;48.638;-2.020;2022-09-20T01:15:13;102296.34;;;20.46;48.00
53960;BME280;39866;48.638;-2.020;2022-09-20T01:17:45;102298.31;;;20.43;48.06
53960;BME280;39866;48.638;-2.020;2022-09-20T01:23:27;102302.72;;;20.45;48.32
53960;BME280;39866;48.638;-2.020;2022-09-20T01:28:37;102304.59;;;20.43;48.01
53960;BME280;39866;48.638;-2.020;2022-09-20T01:31:16;102310.81;;;20.45;48.00
53960;BME280;39866;48.638;-2.020;2022-09-20T01:33:59;102291.28;;;20.39;48.00
53960;BME280;39866;48.638;-2.020;2022-09-20T01:36:33;102301.09;;;20.41;48.11
53960;BME280;39866;48.638;-2.020;2022-09-20T01:39:19;102303.06;;;20.38;48.32
53960;BME280;39866;48.638;-2.020;2022-09-20T01:41:59;102305.88;;;20.35;48.11
53960;BME280;39866;48.638;-2.020;2022-09-20T01:44:40;102307.75;;;20.33;48.47
53960;BME280;39866;48.638;-2.020;2022-09-20T01:49:44;102310.41;;;20.34;48.62
53960;BME280;39866;48.638;-2.020;2022-09-20T01:55:24;102311.38;;;20.33;48.87
53960;BME280;39866;48.638;-2.020;2022-09-20T02:17:52;102307.09;;;20.27;49.10
53960;BME280;39866;48.638;-2.020;2022-09-20T02:28:47;102317.50;;;20.16;49.25
53960;BME280;39866;48.638;-2.020;2022-09-20T02:32:24;102315.00;;;20.12;49.38
53960;BME280;39866;48.638;-2.020;2022-09-20T02:42:46;102312.91;;;20.18;49.32
53960;BME280;39866;48.638;-2.020;2022-09-20T02:45:29;102310.69;;;20.08;49.03
53960;BME280;39866;48.638;-2.020;2022-09-20T02:48:02;102315.22;;;20.07;49.52
53960;BME280;39866;48.638;-2.020;2022-09-20T02:58:54;102319.59;;;19.89;49.49
53960;BME280;39866;48.638;-2.020;2022-09-20T03:12:03;102309.03;;;19.83;49.63
53960;BME280;39866;48.638;-2.020;2022-09-20T03:14:44;102310.81;;;19.84;49.78
53960;BME280;39866;48.638;-2.020;2022-09-20T03:23:07;102311.72;;;19.83;49.53
53960;BME280;39866;48.638;-2.020;2022-09-20T03:25:56;102301.69;;;19.87;49.56
53960;BME280;39866;48.638;-2.020;2022-09-20T03:34:15;102311.63;;;19.86;49.74
53960;BME280;39866;48.638;-2.020;2022-09-20T03:42:41;102307.69;;;19.73;49.76
53960;BME280;39866;48.638;-2.020;2022-09-20T03:53:51;102310.69;;;19.65;49.99
53960;BME280;39866;48.638;-2.020;2022-09-20T04:05:32;102299.78;;;19.68;50.08
53960;BME280;39866;48.638;-2.020;2022-09-20T04:11:13;102296.78;;;19.52;50.29
53960;BME280;39866;48.638;-2.020;2022-09-20T04:13:54;102295.91;;;19.52;50.58
53960;BME280;39866;48.638;-2.020;2022-09-20T04:19:17;102300.69;;;19.45;50.30
53960;BME280;39866;48.638;-2.020;2022-09-20T04:21:56;102300.88;;;19.41;50.66
53960;BME280;39866;48.638;-2.020;2022-09-20T04:27:11;102301.31;;;19.30;51.06
53960;BME280;39866;48.638;-2.020;2022-09-20T04:32:39;102307.72;;;19.27;51.35
53960;BME280;39866;48.638;-2.020;2022-09-20T04:38:15;102300.03;;;19.39;51.34
53960;BME280;39866;48.638;-2.020;2022-09-20T04:43:55;102312.00;;;19.33;51.53
53960;BME280;39866;48.638;-2.020;2022-09-20T04:46:52;102299.94;;;19.42;51.23
53960;BME280;39866;48.638;-2.020;2022-09-20T04:58:38;102306.34;;;19.39;52.33
53960;BME280;39866;48.638;-2.020;2022-09-20T05:07:12;102310.03;;;19.37;53.21
53960;BME280;39866;48.638;-2.020;2022-09-20T05:15:25;102315.06;;;19.46;53.59
53960;BME280;39866;48.638;-2.020;2022-09-20T05:31:19;102307.56;;;19.30;54.35
53960;BME280;39866;48.638;-2.020;2022-09-20T05:37:30;102320.00;;;19.35;54.83
53960;BME280;39866;48.638;-2.020;2022-09-20T05:39:39;102316.44;;;19.34;54.87
53960;BME280;39866;48.638;-2.020;2022-09-20T05:42:14;102312.19;;;19.28;55.06
53960;BME280;39866;48.638;-2.020;2022-09-20T05:47:43;102307.00;;;19.22;55.07
53960;BME280;39866;48.638;-2.020;2022-09-20T05:52:58;102314.00;;;19.28;55.15
53960;BME280;39866;48.638;-2.020;2022-09-20T05:58:54;102312.06;;;19.32;55.19
53960;BME280;39866;48.638;-2.020;2022-09-20T06:04:23;102298.47;;;19.33;55.63
53960;BME280;39866;48.638;-2.020;2022-09-20T06:12:23;102318.22;;;19.35;56.88
53960;BME280;39866;48.638;-2.020;2022-09-20T06:15:10;102322.69;;;19.36;56.71
53960;BME280;39866;48.638;-2.020;2022-09-20T06:17:55;102312.47;;;19.43;56.81
53960;BME280;39866;48.638;-2.020;2022-09-20T06:23:30;102320.47;;;19.46;56.48
53960;BME280;39866;48.638;-2.020;2022-09-20T06:25:58;102330.31;;;19.47;56.29
53960;BME280;39866;48.638;-2.020;2022-09-20T06:28:32;102324.88;;;19.48;56.11
53960;BME280;39866;48.638;-2.020;2022-09-20T06:30:59;102318.34;;;19.54;55.87
53960;BME280;39866;48.638;-2.020;2022-09-20T06:33:26;102322.59;;;19.61;55.64
53960;BME280;39866;48.638;-2.020;2022-09-20T06:39:03;102326.53;;;19.74;55.24
53960;BME280;39866;48.638;-2.020;2022-09-20T06:41:43;102331.59;;;19.82;55.04
53960;BME280;39866;48.638;-2.020;2022-09-20T06:44:09;102330.53;;;19.86;54.85
53960;BME280;39866;48.638;-2.020;2022-09-20T06:46:35;102335.75;;;19.91;54.67
53960;BME280;39866;48.638;-2.020;2022-09-20T06:49:03;102329.38;;;19.92;54.18
53960;BME280;39866;48.638;-2.020;2022-09-20T06:51:33;102335.53;;;19.95;53.83
53960;BME280;39866;48.638;-2.020;2022-09-20T06:54:00;102330.09;;;19.97;53.46
53960;BME280;39866;48.638;-2.020;2022-09-20T06:56:27;102329.94;;;20.00;53.22
53960;BME280;39866;48.638;-2.020;2022-09-20T06:58:53;102340.63;;;20.03;52.98
53960;BME280;39866;48.638;-2.020;2022-09-20T07:01:19;102338.59;;;20.08;52.82
53960;BME280;39866;48.638;-2.020;2022-09-20T07:03:45;102343.06;;;20.09;52.26
53960;BME280;39866;48.638;-2.020;2022-09-20T07:06:12;102341.25;;;20.10;51.93
53960;BME280;39866;48.638;-2.020;2022-09-20T07:08:41;102350.13;;;20.13;52.07
53960;BME280;39866;48.638;-2.020;2022-09-20T07:11:11;102343.81;;;20.13;51.34
53960;BME280;39866;48.638;-2.020;2022-09-20T07:13:37;102342.00;;;20.13;51.38
53960;BME280;39866;48.638;-2.020;2022-09-20T07:16:06;102341.25;;;20.10;51.06
53960;BME280;39866;48.638;-2.020;2022-09-20T07:18:33;102340.38;;;20.09;51.57
53960;BME280;39866;48.638;-2.020;2022-09-20T07:21:02;102342.13;;;20.10;52.21
53960;BME280;39866;48.638;-2.020;2022-09-20T07:23:28;102353.91;;;20.09;52.65
53960;BME280;39866;48.638;-2.020;2022-09-20T07:25:55;102354.69;;;20.11;52.93
53960;BME280;39866;48.638;-2.020;2022-09-20T07:28:22;102350.03;;;20.15;53.47
53960;BME280;39866;48.638;-2.020;2022-09-20T07:30:48;102359.88;;;20.16;53.48
53960;BME280;39866;48.638;-2.020;2022-09-20T07:33:14;102352.94;;;20.10;53.47
53960;BME280;39866;48.638;-2.020;2022-09-20T07:35:46;102358.13;;;20.15;53.42
53960;BME280;39866;48.638;-2.020;2022-09-20T07:38:12;102354.44;;;20.17;53.67
53960;BME280;39866;48.638;-2.020;2022-09-20T07:40:37;102359.66;;;20.22;53.52
53960;BME280;39866;48.638;-2.020;2022-09-20T07:43:03;102365.84;;;20.24;53.14
53960;BME280;39866;48.638;-2.020;2022-09-20T07:45:28;102356.72;;;20.26;53.34
53960;BME280;39866;48.638;-2.020;2022-09-20T07:47:56;102360.41;;;20.25;53.51
53960;BME280;39866;48.638;-2.020;2022-09-20T07:50:23;102363.97;;;20.26;53.76
53960;BME280;39866;48.638;-2.020;2022-09-20T07:52:48;102362.28;;;20.23;53.61
53960;BME280;39866;48.638;-2.020;2022-09-20T07:55:14;102362.91;;;20.30;53.56
53960;BME280;39866;48.638;-2.020;2022-09-20T07:57:39;102365.81;;;20.25;53.08
53960;BME280;39866;48.638;-2.020;2022-09-20T08:00:06;102363.91;;;20.27;53.14
53960;BME280;39866;48.638;-2.020;2022-09-20T08:02:32;102363.78;;;20.31;53.09
53960;BME280;39866;48.638;-2.020;2022-09-20T08:04:57;102370.94;;;20.32;53.17
53960;BME280;39866;48.638;-2.020;2022-09-20T08:07:22;102367.09;;;20.37;53.21
53960;BME280;39866;48.638;-2.020;2022-09-20T08:09:48;102368.63;;;20.43;53.15
53960;BME280;39866;48.638;-2.020;2022-09-20T08:12:13;102380.13;;;20.49;53.04
53960;BME280;39866;48.638;-2.020;2022-09-20T08:14:39;102377.41;;;20.48;53.04
53960;BME280;39866;48.638;-2.020;2022-09-20T08:17:05;102386.25;;;20.53;52.54
53960;BME280;39866;48.638;-2.020;2022-09-20T08:19:30;102388.91;;;20.55;52.24
53960;BME280;39866;48.638;-2.020;2022-09-20T08:21:56;102388.03;;;20.54;51.41
53960;BME280;39866;48.638;-2.020;2022-09-20T08:24:21;102386.94;;;20.58;51.44
53960;BME280;39866;48.638;-2.020;2022-09-20T08:26:47;102379.91;;;20.54;50.64
53960;BME280;39866;48.638;-2.020;2022-09-20T08:29:13;102395.81;;;20.62;50.66
53960;BME280;39866;48.638;-2.020;2022-09-20T08:31:39;102395.59;;;20.66;50.70
53960;BME280;39866;48.638;-2.020;2022-09-20T08:34:09;102390.09;;;20.68;50.51
53960;BME280;39866;48.638;-2.020;2022-09-20T08:36:37;102395.44;;;20.69;49.86
53960;BME280;39866;48.638;-2.020;2022-09-20T08:39:05;102399.56;;;20.78;49.85
53960;BME280;39866;48.638;-2.020;2022-09-20T08:41:42;102402.13;;;20.81;49.70
53960;BME280;39866;48.638;-2.020;2022-09-20T08:44:21;102405.69;;;20.82;49.72
53960;BME280;39866;48.638;-2.020;2022-09-20T08:47:16;102406.44;;;20.85;49.49
53960;BME280;39866;48.638;-2.020;2022-09-20T08:49:43;102408.22;;;20.86;49.70
53960;BME280;39866;48.638;-2.020;2022-09-20T08:52:15;102413.47;;;20.89;49.78
53960;BME280;39866;48.638;-2.020;2022-09-20T08:54:42;102412.47;;;20.92;49.54
53960;BME280;39866;48.638;-2.020;2022-09-20T08:57:16;102417.00;;;20.91;49.53
53960;BME280;39866;48.638;-2.020;2022-09-20T08:59:42;102419.72;;;20.91;49.35
53960;BME280;39866;48.638;-2.020;2022-09-20T09:02:16;102420.59;;;20.92;49.30
53960;BME280;39866;48.638;-2.020;2022-09-20T09:04:42;102425.72;;;20.98;49.32
53960;BME280;39866;48.638;-2.020;2022-09-20T09:07:11;102421.03;;;21.01;49.38
53960;BME280;39866;48.638;-2.020;2022-09-20T09:09:38;102425.59;;;21.01;49.27
53960;BME280;39866;48.638;-2.020;2022-09-20T09:12:16;102428.06;;;21.06;48.93
53960;BME280;39866;48.638;-2.020;2022-09-20T09:14:43;102427.84;;;21.10;48.32
53960;BME280;39866;48.638;-2.020;2022-09-20T09:17:24;102432.19;;;21.14;48.20
53960;BME280;39866;48.638;-2.020;2022-09-20T09:22:38;102431.31;;;21.14;47.92
53960;BME280;39866;48.638;-2.020;2022-09-20T09:27:54;102427.38;;;21.21;47.64
53960;BME280;39866;48.638;-2.020;2022-09-20T09:36:07;102439.06;;;21.21;47.23
53960;BME280;39866;48.638;-2.020;2022-09-20T09:38:38;102431.69;;;21.25;47.52
53960;BME280;39866;48.638;-2.020;2022-09-20T09:41:24;102435.91;;;21.32;47.37
53960;BME280;39866;48.638;-2.020;2022-09-20T09:44:00;102434.00;;;21.34;46.64
53960;BME280;39866;48.638;-2.020;2022-09-20T09:46:30;102434.72;;;21.38;46.92
53960;BME280;39866;48.638;-2.020;2022-09-20T09:49:13;102436.34;;;21.42;46.60
53960;BME280;39866;48.638;-2.020;2022-09-20T09:51:40;102440.16;;;21.38;46.61
53960;BME280;39866;48.638;-2.020;2022-09-20T09:54:16;102445.13;;;21.47;46.67
53960;BME280;39866;48.638;-2.020;2022-09-20T09:56:44;102437.81;;;21.49;46.52
53960;BME280;39866;48.638;-2.020;2022-09-20T09:59:32;102441.31;;;21.51;46.15
53960;BME280;39866;48.638;-2.020;2022-09-20T10:07:52;102444.47;;;21.42;46.43
53960;BME280;39866;48.638;-2.020;2022-09-20T10:10:27;102444.13;;;21.49;46.30
53960;BME280;39866;48.638;-2.020;2022-09-20T10:13:13;102440.91;;;21.60;46.47
53960;BME280;39866;48.638;-2.020;2022-09-20T10:19:09;102438.25;;;21.77;46.65
53960;BME280;39866;48.638;-2.020;2022-09-20T10:21:53;102443.66;;;21.77;46.33
53960;BME280;39866;48.638;-2.020;2022-09-20T10:24:26;102439.13;;;21.78;47.65
53960;BME280;39866;48.638;-2.020;2022-09-20T10:30:11;102441.69;;;21.81;47.89
53960;BME280;39866;48.638;-2.020;2022-09-20T10:33:02;102441.09;;;21.74;48.55
53960;BME280;39866;48.638;-2.020;2022-09-20T10:36:00;102432.97;;;21.74;48.59
53960;BME280;39866;48.638;-2.020;2022-09-20T10:38:35;102436.56;;;21.75;48.47
53960;BME280;39866;48.638;-2.020;2022-09-20T10:49:19;102430.56;;;21.49;49.21
53960;BME280;39866;48.638;-2.020;2022-09-20T10:52:04;102429.25;;;21.39;49.15
53960;BME280;39866;48.638;-2.020;2022-09-20T10:55:06;102434.59;;;21.41;49.40
53960;BME280;39866;48.638;-2.020;2022-09-20T10:57:44;102444.13;;;21.49;49.64
53960;BME280;39866;48.638;-2.020;2022-09-20T11:06:18;102442.50;;;21.45;49.76
53960;BME280;39866;48.638;-2.020;2022-09-20T11:08:46;102429.31;;;21.38;49.65
53960;BME280;39866;48.638;-2.020;2022-09-20T11:11:22;102429.31;;;21.38;50.15
53960;BME280;39866;48.638;-2.020;2022-09-20T11:14:12;102432.69;;;21.43;50.38
53960;BME280;39866;48.638;-2.020;2022-09-20T11:16:58;102429.44;;;21.35;50.31
53960;BME280;39866;48.638;-2.020;2022-09-20T11:19:30;102420.97;;;21.42;50.29
53960;BME280;39866;48.638;-2.020;2022-09-20T11:22:07;102427.81;;;21.31;50.87
53960;BME280;39866;48.638;-2.020;2022-09-20T11:25:03;102425.09;;;21.31;50.91
53960;BME280;39866;48.638;-2.020;2022-09-20T11:30:23;102419.66;;;21.32;51.02
53960;BME280;39866;48.638;-2.020;2022-09-20T11:33:12;102423.28;;;21.31;50.95
53960;BME280;39866;48.638;-2.020;2022-09-20T11:38:41;102417.19;;;21.07;51.57
53960;BME280;39866;48.638;-2.020;2022-09-20T11:41:20;102414.41;;;21.09;51.69
53960;BME280;39866;48.638;-2.020;2022-09-20T11:43:47;102419.72;;;21.10;51.84
53960;BME280;39866;48.638;-2.020;2022-09-20T11:49:11;102420.28;;;20.98;53.03
53960;BME280;39866;48.638;-2.020;2022-09-20T11:56:38;102408.69;;;20.96;55.44
53960;BME280;39866;48.638;-2.020;2022-09-20T11:59:06;102395.06;;;20.97;55.63
53960;BME280;39866;48.638;-2.020;2022-09-20T12:01:44;102400.19;;;21.03;56.31
53960;BME280;39866;48.638;-2.020;2022-09-20T12:04:20;102399.38;;;21.01;57.02
53960;BME280;39866;48.638;-2.020;2022-09-20T12:06:57;102405.47;;;21.07;57.01
53960;BME280;39866;48.638;-2.020;2022-09-20T12:09:42;102391.19;;;21.03;57.20
53960;BME280;39866;48.638;-2.020;2022-09-20T12:14:55;102402.09;;;21.01;57.74
53960;BME280;39866;48.638;-2.020;2022-09-20T12:28:51;102387.09;;;21.13;57.46
53960;BME280;39866;48.638;-2.020;2022-09-20T12:39:33;102382.88;;;21.45;56.40
53960;BME280;39866;48.638;-2.020;2022-09-20T12:42:04;102380.41;;;21.41;55.70
53960;BME280;39866;48.638;-2.020;2022-09-20T12:47:20;102381.09;;;21.63;55.03
53960;BME280;39866;48.638;-2.020;2022-09-20T12:58:04;102370.13;;;21.66;54.97
53960;BME280;39866;48.638;-2.020;2022-09-20T13:00:42;102371.03;;;21.48;55.45
53960;BME280;39866;48.638;-2.020;2022-09-20T13:08:51;102365.56;;;22.03;54.71
53960;BME280;39866;48.638;-2.020;2022-09-20T13:16:30;102360.97;;;22.22;53.33
53960;BME280;39866;48.638;-2.020;2022-09-20T13:19:33;102357.63;;;22.17;53.18
53960;BME280;39866;48.638;-2.020;2022-09-20T13:24:40;102355.41;;;22.25;52.45
53960;BME280;39866;48.638;-2.020;2022-09-20T13:27:11;102352.81;;;22.05;52.22
53960;BME280;39866;48.638;-2.020;2022-09-20T13:29:42;102355.84;;;22.16;50.83
53960;BME280;39866;48.638;-2.020;2022-09-20T13:32:28;102345.72;;;22.20;50.06
53960;BME280;39866;48.638;-2.020;2022-09-20T13:35:26;102357.13;;;22.27;50.36
53960;BME280;39866;48.638;-2.020;2022-09-20T13:38:02;102351.47;;;22.31;50.14
53960;BME280;39866;48.638;-2.020;2022-09-20T13:40:39;102354.25;;;22.47;49.24
53960;BME280;39866;48.638;-2.020;2022-09-20T13:43:39;102350.97;;;22.40;49.10
53960;BME280;39866;48.638;-2.020;2022-09-20T13:46:30;102351.00;;;22.23;50.23
53960;BME280;39866;48.638;-2.020;2022-09-20T13:51:33;102339.97;;;22.43;47.28
53960;BME280;39866;48.638;-2.020;2022-09-20T13:56:42;102345.28;;;22.62;46.79
53960;BME280;39866;48.638;-2.020;2022-09-20T13:59:10;102349.41;;;22.69;47.02
53960;BME280;39866;48.638;-2.020;2022-09-20T14:01:48;102346.16;;;22.63;46.57
53960;BME280;39866;48.638;-2.020;2022-09-20T14:04:17;102352.25;;;22.84;45.99
53960;BME280;39866;48.638;-2.020;2022-09-20T14:06:45;102347.16;;;22.95;46.64
53960;BME280;39866;48.638;-2.020;2022-09-20T14:09:37;102351.97;;;22.72;47.54
53960;BME280;39866;48.638;-2.020;2022-09-20T14:12:04;102349.34;;;22.71;47.81
53960;BME280;39866;48.638;-2.020;2022-09-20T14:14:31;102349.38;;;22.87;47.78
53960;BME280;39866;48.638;-2.020;2022-09-20T14:16:59;102349.38;;;22.87;48.37
53960;BME280;39866;48.638;-2.020;2022-09-20T14:19:31;102336.34;;;22.93;47.67
53960;BME280;39866;48.638;-2.020;2022-09-20T14:22:01;102337.63;;;23.04;48.05
53960;BME280;39866;48.638;-2.020;2022-09-20T14:24:34;102333.66;;;22.93;46.54
53960;BME280;39866;48.638;-2.020;2022-09-20T14:29:45;102324.38;;;22.97;47.38
53960;BME280;39866;48.638;-2.020;2022-09-20T14:37:41;102328.56;;;23.51;46.29
53960;BME280;39866;48.638;-2.020;2022-09-20T14:40:32;102319.91;;;23.60;46.58
53960;BME280;39866;48.638;-2.020;2022-09-20T14:43:05;102316.13;;;23.46;46.85
53960;BME280;39866;48.638;-2.020;2022-09-20T14:45:35;102315.63;;;23.56;46.44
53960;BME280;39866;48.638;-2.020;2022-09-20T14:48:05;102318.56;;;23.51;46.31
53960;BME280;39866;48.638;-2.020;2022-09-20T14:50:35;102316.13;;;23.31;46.54
53960;BME280;39866;48.638;-2.020;2022-09-20T14:55:59;102316.50;;;23.56;45.57
53960;BME280;39866;48.638;-2.020;2022-09-20T14:58:21;102317.81;;;23.95;44.88
53960;BME280;39866;48.638;-2.020;2022-09-20T15:00:58;102318.34;;;24.02;44.33
53960;BME280;39866;48.638;-2.020;2022-09-20T15:03:33;102321.22;;;23.84;44.52
53960;BME280;39866;48.638;-2.020;2022-09-20T15:06:01;102314.19;;;23.80;44.85
53960;BME280;39866;48.638;-2.020;2022-09-20T15:08:27;102294.22;;;23.95;45.14
53960;BME280;39866;48.638;-2.020;2022-09-20T15:10:53;102317.66;;;24.12;44.33
53960;BME280;39866;48.638;-2.020;2022-09-20T15:13:19;102310.78;;;24.07;44.64
53960;BME280;39866;48.638;-2.020;2022-09-20T15:15:48;102312.91;;;24.02;44.32
53960;BME280;39866;48.638;-2.020;2022-09-20T15:18:32;102298.00;;;24.37;44.01
53960;BME280;39866;48.638;-2.020;2022-09-20T15:20:59;102308.53;;;24.43;43.62
53960;BME280;39866;48.638;-2.020;2022-09-20T15:23:25;102299.59;;;24.11;44.83
53960;BME280;39866;48.638;-2.020;2022-09-20T15:25:52;102299.50;;;24.43;44.47
53960;BME280;39866;48.638;-2.020;2022-09-20T15:28:18;102295.63;;;24.47;44.26
53960;BME280;39866;48.638;-2.020;2022-09-20T15:30:45;102298.03;;;24.52;42.91
53960;BME280;39866;48.638;-2.020;2022-09-20T15:33:11;102294.91;;;24.29;42.57
53960;BME280;39866;48.638;-2.020;2022-09-20T15:35:41;102295.88;;;23.98;43.03
53960;BME280;39866;48.638;-2.020;2022-09-20T15:38:07;102302.38;;;23.95;43.08
53960;BME280;39866;48.638;-2.020;2022-09-20T15:40:37;102292.09;;;23.70;43.72
53960;BME280;39866;48.638;-2.020;2022-09-20T15:43:02;102291.91;;;23.58;44.60
53960;BME280;39866;48.638;-2.020;2022-09-20T15:45:28;102291.91;;;23.73;44.28
53960;BME280;39866;48.638;-2.020;2022-09-20T15:47:55;102289.41;;;24.01;43.90
53960;BME280;39866;48.638;-2.020;2022-09-20T15:50:22;102297.31;;;23.89;44.80
53960;BME280;39866;48.638;-2.020;2022-09-20T15:52:48;102300.84;;;23.76;45.24
53960;BME280;39866;48.638;-2.020;2022-09-20T15:55:16;102301.25;;;23.84;44.96
53960;BME280;39866;48.638;-2.020;2022-09-20T15:57:42;102288.22;;;23.75;44.03
53960;BME280;39866;48.638;-2.020;2022-09-20T16:00:08;102295.78;;;23.69;43.91
53960;BME280;39866;48.638;-2.020;2022-09-20T16:02:33;102289.91;;;23.77;43.46
53960;BME280;39866;48.638;-2.020;2022-09-20T16:04:59;102290.91;;;23.90;43.66
53960;BME280;39866;48.638;-2.020;2022-09-20T16:07:26;102290.22;;;23.87;44.54
53960;BME280;39866;48.638;-2.020;2022-09-20T16:09:53;102294.50;;;24.21;43.37
53960;BME280;39866;48.638;-2.020;2022-09-20T16:12:20;102284.69;;;23.88;43.43
53960;BME280;39866;48.638;-2.020;2022-09-20T16:14:46;102297.81;;;23.96;43.60
53960;BME280;39866;48.638;-2.020;2022-09-20T16:17:11;102292.50;;;23.79;43.58
53960;BME280;39866;48.638;-2.020;2022-09-20T16:19:36;102295.09;;;23.50;44.73
53960;BME280;39866;48.638;-2.020;2022-09-20T16:22:03;102292.38;;;23.50;44.59
53960;BME280;39866;48.638;-2.020;2022-09-20T16:24:30;102295.34;;;23.45;44.13
53960;BME280;39866;48.638;-2.020;2022-09-20T16:26:58;102302.53;;;23.62;43.66
53960;BME280;39866;48.638;-2.020;2022-09-20T16:29:24;102294.75;;;23.56;44.18
53960;BME280;39866;48.638;-2.020;2022-09-20T16:31:52;102293.09;;;23.38;44.97
53960;BME280;39866;48.638;-2.020;2022-09-20T16:34:32;102294.66;;;23.42;45.04
53960;BME280;39866;48.638;-2.020;2022-09-20T16:37:03;102296.59;;;23.56;44.36
53960;BME280;39866;48.638;-2.020;2022-09-20T16:39:30;102292.03;;;23.56;43.79
53960;BME280;39866;48.638;-2.020;2022-09-20T16:42:04;102298.69;;;23.66;44.12
53960;BME280;39866;48.638;-2.020;2022-09-20T16:44:33;102301.41;;;23.66;44.27
53960;BME280;39866;48.638;-2.020;2022-09-20T16:46:59;102292.91;;;23.72;44.47
53960;BME280;39866;48.638;-2.020;2022-09-20T16:49:25;102307.19;;;23.60;45.13
53960;BME280;39866;48.638;-2.020;2022-09-20T16:51:52;102298.78;;;23.33;45.19
53960;BME280;39866;48.638;-2.020;2022-09-20T16:54:17;102295.81;;;23.38;45.10
53960;BME280;39866;48.638;-2.020;2022-09-20T16:56:48;102301.50;;;23.17;45.45
53960;BME280;39866;48.638;-2.020;2022-09-20T16:59:15;102285.13;;;23.19;45.25
53960;BME280;39866;48.638;-2.020;2022-09-20T17:01:42;102302.09;;;23.38;45.46
53960;BME280;39866;48.638;-2.020;2022-09-20T17:04:09;102296.06;;;23.33;45.10
53960;BME280;39866;48.638;-2.020;2022-09-20T17:06:36;102300.69;;;23.47;44.70
53960;BME280;39866;48.638;-2.020;2022-09-20T17:09:05;102292.47;;;23.33;44.87
53960;BME280;39866;48.638;-2.020;2022-09-20T17:11:42;102296.69;;;23.22;44.98
53960;BME280;39866;48.638;-2.020;2022-09-20T17:14:10;102293.34;;;23.17;45.58
53960;BME280;39866;48.638;-2.020;2022-09-20T17:16:37;102299.41;;;23.38;44.75
53960;BME280;39866;48.638;-2.020;2022-09-20T17:19:06;102293.72;;;23.27;45.20
53960;BME280;39866;48.638;-2.020;2022-09-20T17:21:32;102295.47;;;23.12;45.05
53960;BME280;39866;48.638;-2.020;2022-09-20T17:24:00;102292.91;;;23.09;45.30
53960;BME280;39866;48.638;-2.020;2022-09-20T17:26:28;102301.50;;;23.17;44.95
53960;BME280;39866;48.638;-2.020;2022-09-20T17:29:02;102292.66;;;23.30;44.78
53960;BME280;39866;48.638;-2.020;2022-09-20T17:31:35;102294.88;;;23.23;45.02
53960;BME280;39866;48.638;-2.020;2022-09-20T17:34:03;102303.53;;;23.30;45.16
53960;BME280;39866;48.638;-2.020;2022-09-20T17:36:47;102303.88;;;23.23;44.59
53960;BME280;39866;48.638;-2.020;2022-09-20T17:39:14;102301.41;;;23.35;44.84
53960;BME280;39866;48.638;-2.020;2022-09-20T17:41:44;102300.47;;;23.36;44.55
53960;BME280;39866;48.638;-2.020;2022-09-20T17:44:10;102291.34;;;23.05;44.68
53960;BME280;39866;48.638;-2.020;2022-09-20T17:46:38;102294.50;;;22.97;45.20
53960;BME280;39866;48.638;-2.020;2022-09-20T17:49:06;102295.47;;;22.96;44.99
53960;BME280;39866;48.638;-2.020;2022-09-20T17:51:37;102298.72;;;22.86;45.58
53960;BME280;39866;48.638;-2.020;2022-09-20T17:54:03;102287.88;;;22.86;45.46
53960;BME280;39866;48.638;-2.020;2022-09-20T17:56:29;102294.25;;;22.69;45.35
53960;BME280;39866;48.638;-2.020;2022-09-20T17:59:03;102297.91;;;22.68;45.37
53960;BME280;39866;48.638;-2.020;2022-09-20T18:01:30;102307.22;;;22.80;45.63
53960;BME280;39866;48.638;-2.020;2022-09-20T18:03:57;102292.06;;;22.75;45.33